createdAt,value
2018-09-25T00:02:16.368Z,103737.83
2018-09-25T00:04:50.600Z,103736.95
2018-09-25T00:07:24.892Z,103736.01
2018-09-25T00:09:59.102Z,103740.05
2018-09-25T00:12:33.354Z,103747.80
2018-09-25T00:15:07.591Z,103745.56
2018-09-25T00:17:41.754Z,103745.03
2018-09-25T00:20:16.044Z,103742.33
2018-09-25T00:22:50.319Z,103740.98
2018-09-25T00:25:24.560Z,103742.80
2018-09-25T00:28:00.098Z,103735.16
2018-09-25T00:30:34.352Z,103732.05
2018-09-25T00:33:08.724Z,103733.40
2018-09-25T00:35:42.984Z,103739.73
2018-09-25T00:38:17.363Z,103738.41
2018-09-25T00:40:51.639Z,103743.78
2018-09-25T00:43:26.029Z,103738.38
2018-09-25T00:46:00.315Z,103737.50
2018-09-25T00:48:34.538Z,103737.44
2018-09-25T00:51:08.738Z,103735.69
2018-09-25T00:53:42.963Z,103742.78
2018-09-25T00:56:17.094Z,103744.13
2018-09-25T00:58:51.268Z,103741.46
2018-09-25T01:01:25.473Z,103742.82
2018-09-25T01:03:59.686Z,103732.61
2018-09-25T01:06:33.972Z,103731.20
2018-09-25T01:09:12.746Z,103730.33
2018-09-25T01:11:46.893Z,103730.33
2018-09-25T01:14:21.154Z,103734.91
2018-09-25T01:16:55.186Z,103721.50
2018-09-25T01:19:29.217Z,103723.26
2018-09-25T01:22:03.533Z,103725.05
2018-09-25T01:24:39.854Z,103724.13
2018-09-25T01:27:14.065Z,103730.42
2018-09-25T01:29:48.408Z,103730.59
2018-09-25T01:32:22.608Z,103730.08
2018-09-25T01:34:56.742Z,103733.62
2018-09-25T01:37:31.056Z,103732.28
2018-09-25T01:40:08.412Z,103733.73
2018-09-25T01:42:43.774Z,103734.67
2018-09-25T01:45:18.216Z,103736.89
2018-09-25T01:47:52.472Z,103736.62
2018-09-25T01:50:26.734Z,103736.54
2018-09-25T01:53:00.972Z,103739.68
2018-09-25T01:55:35.180Z,103743.74
2018-09-25T01:58:09.526Z,103729.38
2018-09-25T02:00:43.834Z,103748.97
2018-09-25T02:03:18.028Z,103741.85
2018-09-25T02:05:52.408Z,103744.58
2018-09-25T02:08:28.776Z,103745.50
2018-09-25T02:11:03.052Z,103741.06
2018-09-25T02:13:37.248Z,103745.08
2018-09-25T02:16:11.688Z,103740.55
2018-09-25T02:18:45.941Z,103737.83
2018-09-25T02:21:20.204Z,103739.59
2018-09-25T02:23:54.407Z,103736.95
2018-09-25T02:26:28.645Z,103745.41
2018-09-25T02:29:02.818Z,103740.45
2018-09-25T02:31:37.078Z,103744.95
2018-09-25T02:34:11.300Z,103755.22
2018-09-25T02:36:45.546Z,103758.76
2018-09-25T02:39:19.792Z,103758.70
2018-09-25T02:41:54.046Z,103764.03
2018-09-25T02:44:28.248Z,103761.81
2018-09-25T02:47:02.595Z,103760.98
2018-09-25T02:49:36.877Z,103754.28
2018-09-25T02:52:11.205Z,103755.62
2018-09-25T02:54:45.347Z,103762.02
2018-09-25T02:57:19.527Z,103751.17
2018-09-25T02:59:54.098Z,103756.55
2018-09-25T03:02:28.254Z,103757.42
2018-09-25T03:05:02.603Z,103753.45
2018-09-25T03:07:36.663Z,103752.00
2018-09-25T03:10:11.065Z,103751.07
2018-09-25T03:12:45.348Z,103752.81
2018-09-25T03:15:19.675Z,103751.00
2018-09-25T03:17:53.690Z,103745.70
2018-09-25T03:20:27.973Z,103748.31
2018-09-25T03:23:02.124Z,103740.27
2018-09-25T03:25:36.329Z,103739.38
2018-09-25T03:28:10.483Z,103733.62
2018-09-25T03:30:44.758Z,103731.86
2018-09-25T03:33:19.010Z,103729.06
2018-09-25T03:35:53.338Z,103730.88
2018-09-25T03:38:27.591Z,103728.20
2018-09-25T03:41:01.865Z,103727.72
2018-09-25T03:43:36.129Z,103726.80
2018-09-25T03:46:10.445Z,103729.88
2018-09-25T03:48:45.727Z,103728.59
2018-09-25T03:51:20.003Z,103724.64
2018-09-25T03:53:54.337Z,103727.25
2018-09-25T03:56:28.601Z,103727.27
2018-09-25T03:59:02.775Z,103725.02
2018-09-25T04:01:36.955Z,103729.07
2018-09-25T04:04:11.047Z,103729.18
2018-09-25T04:06:45.201Z,103733.62
2018-09-25T04:09:20.607Z,103738.46
2018-09-25T04:11:54.891Z,103739.80
2018-09-25T04:14:29.214Z,103729.55
2018-09-25T04:17:03.493Z,103743.42
2018-09-25T04:19:37.678Z,103745.66
2018-09-25T04:22:11.956Z,103741.66
2018-09-25T04:24:46.223Z,103748.73
2018-09-25T04:27:20.683Z,103745.59
2018-09-25T04:29:54.915Z,103738.86
2018-09-25T04:32:29.168Z,103740.60
2018-09-25T04:35:03.437Z,103744.75
2018-09-25T04:37:37.755Z,103744.81
2018-09-25T04:40:11.975Z,103744.36
2018-09-25T04:42:46.077Z,103748.72
2018-09-25T04:45:20.150Z,103747.77
2018-09-25T04:47:54.424Z,103745.09
2018-09-25T04:50:28.805Z,103760.17
2018-09-25T04:53:02.961Z,103774.34
2018-09-25T04:55:37.135Z,103777.59
2018-09-25T04:58:11.611Z,103783.80
2018-09-25T05:00:45.753Z,103782.95
2018-09-25T05:03:19.923Z,103781.20
2018-09-25T05:05:54.055Z,103784.31
2018-09-25T05:08:28.311Z,103782.03
2018-09-25T05:11:02.695Z,103778.42
2018-09-25T05:13:36.827Z,103779.77
2018-09-25T05:16:11.243Z,103768.52
2018-09-25T05:18:45.284Z,103773.88
2018-09-25T05:21:19.473Z,103770.73
2018-09-25T05:24:01.743Z,103768.93
2018-09-25T05:26:35.961Z,103768.45
2018-09-25T05:29:10.187Z,103763.09
2018-09-25T05:31:44.391Z,103770.25
2018-09-25T05:34:18.637Z,103763.03
2018-09-25T05:36:52.813Z,103772.88
2018-09-25T05:39:28.043Z,103767.92
2018-09-25T05:42:02.427Z,103768.39
2018-09-25T05:44:36.655Z,103768.38
2018-09-25T05:47:11.166Z,103769.25
2018-09-25T05:49:45.463Z,103773.62
2018-09-25T05:52:19.642Z,103775.42
2018-09-25T05:54:53.817Z,103781.66
2018-09-25T05:57:28.214Z,103771.00
2018-09-25T06:00:02.542Z,103767.03
2018-09-25T06:02:38.932Z,103772.27
2018-09-25T06:05:13.602Z,103774.50
2018-09-25T06:07:47.784Z,103778.04
2018-09-25T06:10:22.060Z,103781.14
2018-09-25T06:12:56.253Z,103786.47
2018-09-25T06:15:30.477Z,103783.77
2018-09-25T06:18:04.744Z,103783.22
2018-09-25T06:20:39.124Z,103782.26
2018-09-25T06:23:13.297Z,103775.92
2018-09-25T06:25:47.483Z,103785.23
2018-09-25T06:28:21.801Z,103778.89
2018-09-25T06:30:56.075Z,103790.42
2018-09-25T06:33:30.447Z,103789.95
2018-09-25T06:36:04.826Z,103800.23
2018-09-25T06:38:39.125Z,103797.67
2018-09-25T06:41:14.047Z,103801.92
2018-09-25T06:43:48.322Z,103807.41
2018-09-25T06:46:22.524Z,103804.36
2018-09-25T06:48:56.958Z,103800.69
2018-09-25T06:51:31.472Z,103802.48
2018-09-25T06:54:05.841Z,103801.61
2018-09-25T06:56:40.575Z,103805.80
2018-09-25T06:59:15.512Z,103806.42
2018-09-25T07:01:50.016Z,103807.34
2018-09-25T07:04:24.283Z,103815.16
2018-09-25T07:06:58.560Z,103810.41
2018-09-25T07:09:32.948Z,103816.55
2018-09-25T07:12:07.532Z,103816.30
2018-09-25T07:14:41.851Z,103817.01
2018-09-25T07:17:16.651Z,103821.09
2018-09-25T07:19:51.057Z,103822.20
2018-09-25T07:22:25.518Z,103827.85
2018-09-25T07:24:59.799Z,103833.92
2018-09-25T07:27:38.813Z,103830.94
2018-09-25T07:30:13.965Z,103834.48
2018-09-25T07:32:52.590Z,103836.72
2018-09-25T07:38:24.953Z,103837.85
2018-09-25T07:41:00.005Z,103838.88
2018-09-25T07:46:24.150Z,103842.34
2018-09-25T07:48:58.521Z,103844.29
2018-09-25T07:51:32.644Z,103844.98
2018-09-25T07:54:06.989Z,103848.64
2018-09-25T07:56:41.198Z,103848.06
2018-09-25T07:59:15.387Z,103848.39
2018-09-25T08:01:50.409Z,103851.28
2018-09-25T08:04:25.546Z,103855.92
2018-09-25T08:07:00.185Z,103863.55
2018-09-25T08:09:36.353Z,103863.16
2018-09-25T08:12:10.647Z,103871.20
2018-09-25T08:14:46.992Z,103867.05
2018-09-25T08:17:21.272Z,103868.13
2018-09-25T08:19:55.556Z,103870.53
2018-09-25T08:22:30.620Z,103868.88
2018-09-25T08:25:04.812Z,103876.92
2018-09-25T08:27:39.485Z,103876.34
2018-09-25T08:30:13.804Z,103875.47
2018-09-25T08:32:48.190Z,103872.48
2018-09-25T08:35:22.652Z,103880.30
2018-09-25T08:37:56.988Z,103881.55
2018-09-25T08:40:31.214Z,103873.42
2018-09-25T08:43:06.687Z,103883.44
2018-09-25T08:45:41.095Z,103887.09
2018-09-25T08:48:15.216Z,103879.63
2018-09-25T08:50:49.505Z,103876.95
2018-09-25T08:53:24.059Z,103879.46
2018-09-25T08:55:58.197Z,103889.17
2018-09-25T08:58:32.431Z,103884.30
2018-09-25T09:01:08.588Z,103883.83
2018-09-25T09:03:42.942Z,103890.08
2018-09-25T09:06:24.034Z,103890.45
2018-09-25T09:08:58.300Z,103886.20
2018-09-25T09:11:32.604Z,103892.17
2018-09-25T09:14:06.812Z,103898.75
2018-09-25T09:16:41.010Z,103899.59
2018-09-25T09:19:15.316Z,103902.42
2018-09-25T09:21:49.512Z,103901.49
2018-09-25T09:24:24.845Z,103904.66
2018-09-25T09:26:59.041Z,103896.42
2018-09-25T09:29:33.694Z,103906.23
2018-09-25T09:32:07.916Z,103900.41
2018-09-25T09:34:42.468Z,103903.11
2018-09-25T09:37:16.575Z,103897.77
2018-09-25T09:39:50.871Z,103903.00
2018-09-25T09:42:25.563Z,103911.77
2018-09-25T09:45:02.848Z,103907.47
2018-09-25T09:47:37.145Z,103901.30
2018-09-25T09:50:11.423Z,103904.47
2018-09-25T09:52:45.745Z,103907.91
2018-09-25T09:55:20.005Z,103904.03
2018-09-25T09:57:54.305Z,103901.64
2018-09-25T10:00:28.474Z,103908.33
2018-09-25T10:03:04.870Z,103913.47
2018-09-25T10:05:39.052Z,103903.32
2018-09-25T10:08:13.304Z,103902.67
2018-09-25T10:10:47.621Z,103906.12
2018-09-25T10:13:21.932Z,103903.31
2018-09-25T10:15:56.202Z,103911.77
2018-09-25T10:18:30.437Z,103908.13
2018-09-25T10:21:08.927Z,103909.48
2018-09-25T10:23:43.253Z,103903.11
2018-09-25T10:26:17.508Z,103910.28
2018-09-25T10:28:52.910Z,103903.83
2018-09-25T10:31:27.196Z,103899.30
2018-09-25T10:34:01.501Z,103901.56
2018-09-25T10:36:48.960Z,103900.63
2018-09-25T10:39:23.289Z,103896.34
2018-09-25T10:41:57.602Z,103895.88
2018-09-25T10:44:32.920Z,103891.41
2018-09-25T10:47:07.303Z,103893.26
2018-09-25T10:49:41.594Z,103891.97
2018-09-25T10:52:15.837Z,103888.56
2018-09-25T10:54:50.097Z,103893.81
2018-09-25T10:57:24.367Z,103893.08
2018-09-25T10:59:58.593Z,103888.88
2018-09-25T11:02:33.004Z,103896.19
2018-09-25T11:05:07.328Z,103894.02
2018-09-25T11:07:41.542Z,103887.70
2018-09-25T11:10:15.891Z,103887.00
2018-09-25T11:12:50.093Z,103894.16
2018-09-25T11:15:24.377Z,103890.32
2018-09-25T11:18:00.763Z,103880.78
2018-09-25T11:20:38.215Z,103876.75
2018-09-25T11:23:12.523Z,103883.06
2018-09-25T11:25:46.739Z,103876.78
2018-09-25T11:28:23.141Z,103879.80
2018-09-25T11:30:57.445Z,103878.78
2018-09-25T11:33:41.441Z,103881.39
2018-09-25T11:36:15.704Z,103877.28
2018-09-25T11:38:50.050Z,103880.56
2018-09-25T11:41:24.433Z,103878.20
2018-09-25T11:43:58.553Z,103872.86
2018-09-25T11:46:32.886Z,103879.20
2018-09-25T11:49:06.983Z,103871.04
2018-09-25T11:51:48.272Z,103861.91
2018-09-25T11:54:22.528Z,103867.31
2018-09-25T11:56:56.877Z,103863.66
2018-09-25T11:59:31.091Z,103855.55
2018-09-25T12:02:05.317Z,103852.70
2018-09-25T12:04:39.636Z,103856.05
2018-09-25T12:07:13.689Z,103857.34
2018-09-25T12:09:47.841Z,103853.61
2018-09-25T12:12:22.028Z,103852.30
2018-09-25T12:14:56.421Z,103852.34
2018-09-25T12:17:30.795Z,103847.86
2018-09-25T12:20:04.905Z,103849.65
2018-09-25T12:22:39.183Z,103849.12
2018-09-25T12:25:13.404Z,103847.04
2018-09-25T12:27:47.726Z,103837.64
2018-09-25T12:30:22.030Z,103839.25
2018-09-25T12:32:56.230Z,103836.34
2018-09-25T12:35:30.502Z,103829.11
2018-09-25T12:38:04.708Z,103822.80
2018-09-25T12:40:40.990Z,103819.06
2018-09-25T12:43:15.198Z,103814.84
2018-09-25T12:45:49.504Z,103807.74
2018-09-25T12:48:23.785Z,103795.65
2018-09-25T12:50:57.983Z,103784.49
2018-09-25T12:53:32.185Z,103790.17
2018-09-25T12:56:06.345Z,103784.43
2018-09-25T12:58:40.536Z,103785.44
2018-09-25T13:01:14.755Z,103781.39
2018-09-25T13:04:05.736Z,103776.92
2018-09-25T13:06:39.948Z,103771.43
2018-09-25T13:09:15.223Z,103776.67
2018-09-25T13:11:49.685Z,103767.59
2018-09-25T13:14:24.015Z,103766.99
2018-09-25T13:16:58.195Z,103767.27
2018-09-25T13:19:32.415Z,103772.14
2018-09-25T13:22:20.078Z,103767.74
2018-09-25T13:24:54.233Z,103767.12
2018-09-25T13:27:28.449Z,103761.59
2018-09-25T13:30:02.935Z,103767.52
2018-09-25T13:32:37.071Z,103773.33
2018-09-25T13:35:11.427Z,103765.69
2018-09-25T13:37:45.636Z,103762.92
2018-09-25T13:40:20.783Z,103771.44
2018-09-25T13:42:55.005Z,103769.00
2018-09-25T13:45:29.219Z,103779.14
2018-09-25T13:48:03.413Z,103774.27
2018-09-25T13:50:37.775Z,103769.91
2018-09-25T13:53:12.541Z,103761.49
2018-09-25T13:55:47.393Z,103762.19
2018-09-25T13:58:22.769Z,103754.38
2018-09-25T14:00:57.048Z,103750.28
2018-09-25T14:03:33.308Z,103739.91
2018-09-25T14:06:07.562Z,103732.23
2018-09-25T14:08:41.985Z,103735.48
2018-09-25T14:11:17.304Z,103732.31
2018-09-25T14:13:51.644Z,103726.35
2018-09-25T14:16:30.882Z,103720.91
2018-09-25T14:19:05.073Z,103715.72
2018-09-25T14:21:39.399Z,103702.77
2018-09-25T14:24:13.741Z,103696.19
2018-09-25T14:26:47.984Z,103689.55
2018-09-25T14:29:22.260Z,103680.84
2018-09-25T14:31:58.516Z,103675.44
2018-09-25T14:34:32.811Z,103671.88
2018-09-25T14:37:10.928Z,103682.19
2018-09-25T14:39:45.049Z,103676.22
2018-09-25T14:42:19.281Z,103671.02
2018-09-25T14:45:04.143Z,103684.93
2018-09-25T14:47:38.257Z,103689.48
2018-09-25T14:50:12.488Z,103681.77
2018-09-25T14:52:46.683Z,103686.73
2018-09-25T14:55:21.124Z,103682.28
2018-09-25T14:57:55.424Z,103674.16
2018-09-25T15:00:29.824Z,103673.02
2018-09-25T15:03:04.005Z,103672.28
2018-09-25T15:05:38.168Z,103669.46
2018-09-25T15:08:19.325Z,103672.62
2018-09-25T15:10:53.609Z,103677.59
2018-09-25T15:13:29.909Z,103670.84
2018-09-25T15:16:04.227Z,103671.94
2018-09-25T15:18:38.591Z,103676.55
2018-09-25T15:21:12.955Z,103679.13
2018-09-25T15:23:47.121Z,103674.13
2018-09-25T15:26:21.336Z,103677.05
2018-09-25T15:28:55.744Z,103678.19
2018-09-25T15:31:29.941Z,103671.36
2018-09-25T15:34:04.165Z,103672.45
2018-09-25T15:36:38.311Z,103674.64
2018-09-25T15:39:23.528Z,103675.48
2018-09-25T15:41:57.811Z,103673.73
2018-09-25T15:44:32.042Z,103677.27
2018-09-25T15:47:06.271Z,103680.56
2018-09-25T15:49:40.477Z,103676.51
2018-09-25T15:52:14.712Z,103674.98
2018-09-25T15:54:48.989Z,103673.98
2018-09-25T15:57:23.233Z,103668.61
2018-09-25T15:59:57.463Z,103661.42
2018-09-25T16:02:31.688Z,103656.56
2018-09-25T16:05:06.899Z,103660.28
2018-09-25T16:07:41.160Z,103663.24
2018-09-25T16:10:15.337Z,103657.22
2018-09-25T16:12:49.575Z,103651.88
2018-09-25T16:15:23.985Z,103648.38
2018-09-25T16:17:58.177Z,103653.34
2018-09-25T16:20:32.455Z,103659.63
2018-09-25T16:23:07.638Z,103653.82
2018-09-25T16:25:41.857Z,103645.38
2018-09-25T16:28:16.097Z,103648.27
2018-09-25T16:30:54.371Z,103648.04
2018-09-25T16:33:28.659Z,103652.16
2018-09-25T16:36:02.833Z,103649.89
2018-09-25T16:38:37.038Z,103650.73
2018-09-25T16:41:11.243Z,103650.77
2018-09-25T16:43:48.639Z,103651.62
2018-09-25T16:46:22.937Z,103656.95
2018-09-25T16:48:57.242Z,103648.30
2018-09-25T16:51:31.360Z,103654.11
2018-09-25T16:54:05.551Z,103656.55
2018-09-25T16:56:39.944Z,103648.44
2018-09-25T16:59:14.142Z,103653.98
2018-09-25T17:01:48.393Z,103657.60
2018-09-25T17:04:32.558Z,103662.16
2018-09-25T17:07:06.769Z,103668.00
2018-09-25T17:09:41.508Z,103665.37
2018-09-25T17:12:15.882Z,103669.16
2018-09-25T17:14:50.028Z,103662.88
2018-09-25T17:17:24.244Z,103657.53
2018-09-25T17:19:59.774Z,103656.25
2018-09-25T17:22:34.386Z,103660.71
2018-09-25T17:25:11.838Z,103668.00
2018-09-25T17:27:46.056Z,103674.98
2018-09-25T17:30:20.363Z,103679.07
2018-09-25T17:32:56.736Z,103676.50
2018-09-25T17:35:31.020Z,103681.05
2018-09-25T17:38:05.334Z,103674.74
2018-09-25T17:40:39.859Z,103670.69
2018-09-25T17:43:14.106Z,103660.83
2018-09-25T17:45:48.219Z,103662.25
2018-09-25T17:48:22.412Z,103655.09
2018-09-25T17:50:56.608Z,103659.55
2018-09-25T17:53:30.923Z,103656.06
2018-09-25T17:56:05.152Z,103655.50
2018-09-25T17:58:39.276Z,103662.28
2018-09-25T18:01:13.560Z,103657.86
2018-09-25T18:03:47.804Z,103668.25
2018-09-25T18:06:22.184Z,103671.39
2018-09-25T18:08:56.466Z,103673.33
2018-09-25T18:11:30.650Z,103674.78
2018-09-25T18:14:04.966Z,103674.30
2018-09-25T18:16:39.104Z,103673.02
2018-09-25T18:19:13.300Z,103673.11
2018-09-25T18:21:47.529Z,103668.66
2018-09-25T18:24:21.857Z,103666.39
2018-09-25T18:26:56.125Z,103662.91
2018-09-25T18:29:30.261Z,103659.42
2018-09-25T18:32:05.474Z,103660.23
2018-09-25T18:34:39.724Z,103657.13
2018-09-25T18:37:13.946Z,103652.27
2018-09-25T18:39:48.122Z,103655.02
2018-09-25T18:42:22.383Z,103651.00
2018-09-25T18:44:56.554Z,103656.87
2018-09-25T18:47:30.826Z,103655.20
2018-09-25T18:50:05.196Z,103644.41
2018-09-25T18:52:39.462Z,103636.82
2018-09-25T18:55:13.991Z,103642.66
2018-09-25T18:57:48.120Z,103651.77
2018-09-25T19:00:22.354Z,103658.93
2018-09-25T19:02:56.552Z,103661.28
2018-09-25T19:05:30.814Z,103665.38
2018-09-25T19:08:05.132Z,103673.13
2018-09-25T19:10:39.372Z,103675.20
2018-09-25T19:13:13.652Z,103676.39
2018-09-25T19:15:47.812Z,103668.69
2018-09-25T19:18:32.880Z,103667.34
2018-09-25T19:21:07.149Z,103678.48
2018-09-25T19:23:41.288Z,103681.09
2018-09-25T19:26:15.460Z,103670.28
2018-09-25T19:28:49.726Z,103661.70
2018-09-25T19:31:23.975Z,103664.15
2018-09-25T19:33:58.194Z,103665.09
2018-09-25T19:36:44.868Z,103661.40
2018-09-25T19:39:21.263Z,103656.61
2018-09-25T19:41:56.284Z,103648.91
2018-09-25T19:44:30.420Z,103643.13
2018-09-25T19:47:11.926Z,103641.37
2018-09-25T19:49:46.063Z,103636.77
2018-09-25T19:52:20.341Z,103637.13
2018-09-25T19:54:54.641Z,103636.25
2018-09-25T19:57:28.813Z,103631.16
2018-09-25T20:00:03.020Z,103633.75
2018-09-25T20:02:37.176Z,103630.25
2018-09-25T20:05:11.367Z,103614.81
2018-09-25T20:07:48.902Z,103609.92
2018-09-25T20:10:23.048Z,103608.03
2018-09-25T20:12:57.458Z,103595.48
2018-09-25T20:15:31.800Z,103605.41
2018-09-25T20:18:06.030Z,103589.68
2018-09-25T20:20:40.218Z,103597.60
2018-09-25T20:23:14.435Z,103585.74
2018-09-25T20:25:48.577Z,103590.17
2018-09-25T20:28:22.800Z,103585.55
2018-09-25T20:30:57.078Z,103580.30
2018-09-25T20:33:34.824Z,103574.72
2018-09-25T20:36:09.232Z,103574.01
2018-09-25T20:38:43.557Z,103573.48
2018-09-25T20:41:17.842Z,103573.72
2018-09-25T20:43:52.088Z,103574.25
2018-09-25T20:46:26.347Z,103584.12
2018-09-25T20:49:00.655Z,103587.15
2018-09-25T20:51:34.776Z,103602.33
2018-09-25T20:54:15.608Z,103602.27
2018-09-25T20:56:49.720Z,103601.22
2018-09-25T20:59:25.108Z,103579.06
2018-09-25T21:01:59.334Z,103563.09
2018-09-25T21:04:33.574Z,103553.95
2018-09-25T21:07:10.807Z,103560.74
2018-09-25T21:09:45.112Z,103561.80
2018-09-25T21:12:19.242Z,103556.88
2018-09-25T21:14:53.247Z,103568.25
2018-09-25T21:17:28.632Z,103569.47
2018-09-25T21:20:03.049Z,103575.87
2018-09-25T21:22:37.358Z,103571.11
2018-09-25T21:25:11.716Z,103568.91
2018-09-25T21:27:45.876Z,103567.47
2018-09-25T21:30:20.072Z,103566.89
2018-09-25T21:32:54.310Z,103570.98
2018-09-25T21:35:28.624Z,103572.23
2018-09-25T21:38:02.764Z,103575.81
2018-09-25T21:40:36.919Z,103590.13
2018-09-25T21:43:11.188Z,103587.36
2018-09-25T21:45:45.572Z,103577.23
2018-09-25T21:48:19.771Z,103577.48
2018-09-25T21:50:54.076Z,103574.09
2018-09-25T21:53:28.492Z,103578.11
2018-09-25T21:56:02.672Z,103583.38
2018-09-25T21:58:37.002Z,103574.93
2018-09-25T22:01:11.198Z,103571.27
2018-09-25T22:03:45.669Z,103570.58
2018-09-25T22:06:20.030Z,103563.94
2018-09-25T22:08:54.351Z,103561.02
2018-09-25T22:11:28.536Z,103555.01
2018-09-25T22:14:02.918Z,103546.38
2018-09-25T22:16:37.183Z,103552.19
2018-09-25T22:19:11.368Z,103543.84
2018-09-25T22:21:45.480Z,103545.39
2018-09-25T22:24:19.888Z,103544.67
2018-09-25T22:26:54.089Z,103541.89
2018-09-25T22:29:28.344Z,103523.95
2018-09-25T22:32:02.560Z,103525.92
2018-09-25T22:34:36.770Z,103519.43
2018-09-25T22:37:11.184Z,103525.28
2018-09-25T22:39:45.488Z,103531.06
2018-09-25T22:42:19.900Z,103522.20
2018-09-25T22:44:54.017Z,103525.84
2018-09-25T22:47:28.174Z,103530.28
2018-09-25T22:50:02.405Z,103534.98
2018-09-25T22:52:36.434Z,103542.81
2018-09-25T22:55:10.688Z,103556.31
2018-09-25T22:57:44.988Z,103545.84
2018-09-25T23:00:19.283Z,103537.13
2018-09-25T23:02:53.507Z,103537.52
2018-09-25T23:05:27.782Z,103534.73
2018-09-25T23:08:02.264Z,103535.17
2018-09-25T23:10:36.628Z,103520.52
2018-09-25T23:13:11.143Z,103519.55
2018-09-25T23:15:45.355Z,103526.66
2018-09-25T23:18:19.704Z,103532.55
2018-09-25T23:20:54.042Z,103531.14
2018-09-25T23:23:28.194Z,103516.78
2018-09-25T23:26:02.470Z,103504.77
2018-09-25T23:28:36.679Z,103502.52
2018-09-25T23:31:11.990Z,103497.30
2018-09-25T23:33:46.326Z,103491.19
2018-09-25T23:36:20.764Z,103501.15
2018-09-25T23:38:54.996Z,103507.02
2018-09-25T23:41:28.111Z,103499.12
2018-09-25T23:44:06.132Z,103484.00
2018-09-25T23:48:43.333Z,103497.47
2018-09-25T23:51:47.842Z,103483.33
2018-09-25T23:54:24.986Z,103486.53
2018-09-25T23:56:58.171Z,103490.51
2018-09-25T23:59:36.584Z,103491.16
